sensor_id;sensor_type;location;lat;lon;timestamp;P1;durP1;ratioP1;P2;durP2;ratioP2
11588;SDS011;5850;51.360;12.362;2022-07-23T00:01:16;8.00;;;5.60;;
11588;SDS011;5850;51.360;12.362;2022-07-23T00:03:47;6.27;;;5.10;;
11588;SDS011;5850;51.360;12.362;2022-07-23T00:06:16;6.13;;;5.50;;
11588;SDS011;5850;51.360;12.362;2022-07-23T00:08:45;5.60;;;5.10;;
11588;SDS011;5850;51.360;12.362;2022-07-23T00:11:13;5.93;;;5.33;;
11588;SDS011;5850;51.360;12.362;2022-07-23T00:13:42;6.33;;;5.73;;
11588;SDS011;5850;51.360;12.362;2022-07-23T00:16:10;5.57;;;5.07;;
11588;SDS011;5850;51.360;12.362;2022-07-23T00:18:39;6.87;;;5.63;;
11588;SDS011;5850;51.360;12.362;2022-07-23T00:21:08;5.87;;;5.33;;
11588;SDS011;5850;51.360;12.362;2022-07-23T00:23:36;6.50;;;5.63;;
11588;SDS011;5850;51.360;12.362;2022-07-23T00:26:05;6.13;;;5.53;;
11588;SDS011;5850;51.360;12.362;2022-07-23T00:28:34;6.57;;;5.60;;
11588;SDS011;5850;51.360;12.362;2022-07-23T00:31:04;6.33;;;5.73;;
11588;SDS011;5850;51.360;12.362;2022-07-23T00:33:33;6.60;;;5.80;;
11588;SDS011;5850;51.360;12.362;2022-07-23T00:36:01;6.53;;;5.73;;
11588;SDS011;5850;51.360;12.362;2022-07-23T00:38:30;5.57;;;5.07;;
11588;SDS011;5850;51.360;12.362;2022-07-23T00:40:59;6.70;;;6.10;;
11588;SDS011;5850;51.360;12.362;2022-07-23T00:43:27;6.50;;;5.80;;
11588;SDS011;5850;51.360;12.362;2022-07-23T00:45:56;6.23;;;5.63;;
11588;SDS011;5850;51.360;12.362;2022-07-23T00:48:27;6.50;;;5.90;;
11588;SDS011;5850;51.360;12.362;2022-07-23T00:50:56;7.17;;;5.70;;
11588;SDS011;5850;51.360;12.362;2022-07-23T00:53:25;6.73;;;6.13;;
11588;SDS011;5850;51.360;12.362;2022-07-23T00:55:53;7.20;;;6.40;;
11588;SDS011;5850;51.360;12.362;2022-07-23T00:58:22;7.57;;;6.53;;
11588;SDS011;5850;51.360;12.362;2022-07-23T01:00:50;7.03;;;6.43;;
11588;SDS011;5850;51.360;12.362;2022-07-23T01:03:19;6.67;;;6.10;;
11588;SDS011;5850;51.360;12.362;2022-07-23T01:05:48;6.27;;;5.67;;
11588;SDS011;5850;51.360;12.362;2022-07-23T01:08:17;6.83;;;5.97;;
11588;SDS011;5850;51.360;12.362;2022-07-23T01:10:48;6.90;;;6.20;;
11588;SDS011;5850;51.360;12.362;2022-07-23T01:13:17;6.50;;;5.83;;
11588;SDS011;5850;51.360;12.362;2022-07-23T01:15:46;6.30;;;5.70;;
11588;SDS011;5850;51.360;12.362;2022-07-23T01:18:14;7.23;;;6.53;;
11588;SDS011;5850;51.360;12.362;2022-07-23T01:20:43;6.67;;;6.07;;
11588;SDS011;5850;51.360;12.362;2022-07-23T01:23:11;6.07;;;5.40;;
11588;SDS011;5850;51.360;12.362;2022-07-23T01:25:52;6.60;;;5.63;;
11588;SDS011;5850;51.360;12.362;2022-07-23T01:28:20;6.93;;;5.70;;
11588;SDS011;5850;51.360;12.362;2022-07-23T01:30:50;6.70;;;6.10;;
11588;SDS011;5850;51.360;12.362;2022-07-23T01:33:18;6.30;;;5.70;;
11588;SDS011;5850;51.360;12.362;2022-07-23T01:35:47;8.90;;;6.00;;
11588;SDS011;5850;51.360;12.362;2022-07-23T01:38:15;6.27;;;5.67;;
11588;SDS011;5850;51.360;12.362;2022-07-23T01:40:44;6.37;;;5.77;;
11588;SDS011;5850;51.360;12.362;2022-07-23T01:43:19;6.20;;;5.60;;
11588;SDS011;5850;51.360;12.362;2022-07-23T01:45:50;6.80;;;6.20;;
11588;SDS011;5850;51.360;12.362;2022-07-23T01:48:19;6.70;;;6.00;;
11588;SDS011;5850;51.360;12.362;2022-07-23T01:50:48;7.13;;;5.83;;
11588;SDS011;5850;51.360;12.362;2022-07-23T01:53:16;7.40;;;6.20;;
11588;SDS011;5850;51.360;12.362;2022-07-23T01:55:45;8.20;;;6.77;;
11588;SDS011;5850;51.360;12.362;2022-07-23T01:58:13;9.03;;;6.30;;
11588;SDS011;5850;51.360;12.362;2022-07-23T02:00:41;6.23;;;5.73;;
11588;SDS011;5850;51.360;12.362;2022-07-23T02:03:10;6.90;;;5.67;;
11588;SDS011;5850;51.360;12.362;2022-07-23T02:05:39;6.40;;;5.83;;
11588;SDS011;5850;51.360;12.362;2022-07-23T02:08:07;6.80;;;6.10;;
11588;SDS011;5850;51.360;12.362;2022-07-23T02:10:36;6.77;;;6.10;;
11588;SDS011;5850;51.360;12.362;2022-07-23T02:13:04;7.70;;;6.27;;
11588;SDS011;5850;51.360;12.362;2022-07-23T02:15:33;7.20;;;6.30;;
11588;SDS011;5850;51.360;12.362;2022-07-23T02:18:01;7.83;;;6.47;;
11588;SDS011;5850;51.360;12.362;2022-07-23T02:20:30;7.80;;;6.47;;
11588;SDS011;5850;51.360;12.362;2022-07-23T02:22:58;6.53;;;5.73;;
11588;SDS011;5850;51.360;12.362;2022-07-23T02:25:27;6.90;;;6.17;;
11588;SDS011;5850;51.360;12.362;2022-07-23T02:27:55;7.30;;;6.70;;
11588;SDS011;5850;51.360;12.362;2022-07-23T02:30:24;8.40;;;6.77;;
11588;SDS011;5850;51.360;12.362;2022-07-23T02:32:53;6.60;;;5.73;;
11588;SDS011;5850;51.360;12.362;2022-07-23T02:35:22;6.83;;;6.23;;
11588;SDS011;5850;51.360;12.362;2022-07-23T02:37:51;8.07;;;6.10;;
11588;SDS011;5850;51.360;12.362;2022-07-23T02:40:19;7.00;;;6.30;;
11588;SDS011;5850;51.360;12.362;2022-07-23T02:42:48;6.87;;;6.07;;
11588;SDS011;5850;51.360;12.362;2022-07-23T02:45:16;7.63;;;6.30;;
11588;SDS011;5850;51.360;12.362;2022-07-23T02:47:45;6.77;;;6.00;;
11588;SDS011;5850;51.360;12.362;2022-07-23T02:50:13;7.90;;;6.50;;
11588;SDS011;5850;51.360;12.362;2022-07-23T02:52:42;7.70;;;6.87;;
11588;SDS011;5850;51.360;12.362;2022-07-23T02:55:11;7.67;;;6.97;;
11588;SDS011;5850;51.360;12.362;2022-07-23T02:57:39;9.07;;;7.03;;
11588;SDS011;5850;51.360;12.362;2022-07-23T03:00:08;7.60;;;6.57;;
11588;SDS011;5850;51.360;12.362;2022-07-23T03:02:37;7.20;;;6.20;;
11588;SDS011;5850;51.360;12.362;2022-07-23T03:05:06;8.00;;;6.70;;
11588;SDS011;5850;51.360;12.362;2022-07-23T03:07:34;9.67;;;6.00;;
11588;SDS011;5850;51.360;12.362;2022-07-23T03:10:03;8.27;;;5.67;;
11588;SDS011;5850;51.360;12.362;2022-07-23T03:12:34;7.93;;;7.13;;
11588;SDS011;5850;51.360;12.362;2022-07-23T03:15:02;10.87;;;7.13;;
11588;SDS011;5850;51.360;12.362;2022-07-23T03:17:31;7.83;;;7.10;;
11588;SDS011;5850;51.360;12.362;2022-07-23T03:20:00;7.00;;;6.30;;
11588;SDS011;5850;51.360;12.362;2022-07-23T03:22:28;7.80;;;7.10;;
11588;SDS011;5850;51.360;12.362;2022-07-23T03:24:57;7.70;;;6.80;;
11588;SDS011;5850;51.360;12.362;2022-07-23T03:27:26;9.53;;;7.23;;
11588;SDS011;5850;51.360;12.362;2022-07-23T03:29:57;7.60;;;6.87;;
11588;SDS011;5850;51.360;12.362;2022-07-23T03:32:27;6.33;;;5.73;;
11588;SDS011;5850;51.360;12.362;2022-07-23T03:34:55;6.53;;;5.87;;
11588;SDS011;5850;51.360;12.362;2022-07-23T03:37:24;6.53;;;5.80;;
11588;SDS011;5850;51.360;12.362;2022-07-23T03:39:53;6.57;;;5.83;;
11588;SDS011;5850;51.360;12.362;2022-07-23T03:42:22;6.93;;;6.20;;
11588;SDS011;5850;51.360;12.362;2022-07-23T03:44:50;7.30;;;6.33;;
11588;SDS011;5850;51.360;12.362;2022-07-23T03:47:19;7.80;;;6.00;;
11588;SDS011;5850;51.360;12.362;2022-07-23T03:49:48;9.03;;;5.60;;
11588;SDS011;5850;51.360;12.362;2022-07-23T03:52:17;10.00;;;6.10;;
11588;SDS011;5850;51.360;12.362;2022-07-23T03:54:45;6.67;;;5.97;;
11588;SDS011;5850;51.360;12.362;2022-07-23T03:57:14;7.97;;;6.50;;
11588;SDS011;5850;51.360;12.362;2022-07-23T03:59:42;6.17;;;5.57;;
11588;SDS011;5850;51.360;12.362;2022-07-23T04:02:11;7.83;;;6.37;;
11588;SDS011;5850;51.360;12.362;2022-07-23T04:04:39;8.20;;;6.47;;
11588;SDS011;5850;51.360;12.362;2022-07-23T04:07:08;6.90;;;6.20;;
11588;SDS011;5850;51.360;12.362;2022-07-23T04:09:36;6.37;;;5.77;;
11588;SDS011;5850;51.360;12.362;2022-07-23T04:12:11;8.63;;;6.00;;
11588;SDS011;5850;51.360;12.362;2022-07-23T04:14:40;8.67;;;5.87;;
11588;SDS011;5850;51.360;12.362;2022-07-23T04:17:08;7.07;;;5.83;;
11588;SDS011;5850;51.360;12.362;2022-07-23T04:19:37;6.80;;;6.07;;
11588;SDS011;5850;51.360;12.362;2022-07-23T04:22:08;8.13;;;5.37;;
11588;SDS011;5850;51.360;12.362;2022-07-23T04:24:39;5.83;;;5.20;;
11588;SDS011;5850;51.360;12.362;2022-07-23T04:27:07;6.57;;;5.97;;
11588;SDS011;5850;51.360;12.362;2022-07-23T04:29:36;6.40;;;5.00;;
11588;SDS011;5850;51.360;12.362;2022-07-23T04:32:05;8.10;;;5.30;;
11588;SDS011;5850;51.360;12.362;2022-07-23T04:34:33;8.13;;;6.10;;
11588;SDS011;5850;51.360;12.362;2022-07-23T04:37:02;6.47;;;5.67;;
11588;SDS011;5850;51.360;12.362;2022-07-23T04:39:30;7.40;;;5.73;;
11588;SDS011;5850;51.360;12.362;2022-07-23T04:41:59;8.13;;;5.87;;
11588;SDS011;5850;51.360;12.362;2022-07-23T04:44:27;8.33;;;6.70;;
11588;SDS011;5850;51.360;12.362;2022-07-23T04:46:56;13.13;;;8.00;;
11588;SDS011;5850;51.360;12.362;2022-07-23T04:49:25;9.73;;;8.33;;
11588;SDS011;5850;51.360;12.362;2022-07-23T04:51:53;9.27;;;7.40;;
11588;SDS011;5850;51.360;12.362;2022-07-23T04:54:21;10.97;;;8.73;;
11588;SDS011;5850;51.360;12.362;2022-07-23T04:56:50;12.40;;;8.67;;
11588;SDS011;5850;51.360;12.362;2022-07-23T04:59:19;11.13;;;8.63;;
11588;SDS011;5850;51.360;12.362;2022-07-23T05:01:48;11.60;;;9.13;;
11588;SDS011;5850;51.360;12.362;2022-07-23T05:04:17;15.73;;;10.10;;
11588;SDS011;5850;51.360;12.362;2022-07-23T05:06:45;13.13;;;9.93;;
11588;SDS011;5850;51.360;12.362;2022-07-23T05:09:14;12.37;;;9.97;;
11588;SDS011;5850;51.360;12.362;2022-07-23T05:11:42;12.60;;;10.03;;
11588;SDS011;5850;51.360;12.362;2022-07-23T05:14:11;10.20;;;9.20;;
11588;SDS011;5850;51.360;12.362;2022-07-23T05:16:39;14.60;;;11.70;;
11588;SDS011;5850;51.360;12.362;2022-07-23T05:19:08;12.57;;;10.10;;
11588;SDS011;5850;51.360;12.362;2022-07-23T05:21:36;12.27;;;10.23;;
11588;SDS011;5850;51.360;12.362;2022-07-23T05:24:05;19.67;;;10.30;;
11588;SDS011;5850;51.360;12.362;2022-07-23T05:26:34;14.10;;;10.90;;
11588;SDS011;5850;51.360;12.362;2022-07-23T05:29:02;16.37;;;11.30;;
11588;SDS011;5850;51.360;12.362;2022-07-23T05:31:32;13.30;;;9.80;;
11588;SDS011;5850;51.360;12.362;2022-07-23T05:34:00;15.10;;;11.00;;
11588;SDS011;5850;51.360;12.362;2022-07-23T05:36:30;13.73;;;10.63;;
11588;SDS011;5850;51.360;12.362;2022-07-23T05:38:59;15.43;;;11.27;;
11588;SDS011;5850;51.360;12.362;2022-07-23T05:41:28;12.97;;;10.70;;
11588;SDS011;5850;51.360;12.362;2022-07-23T05:43:57;13.47;;;10.87;;
11588;SDS011;5850;51.360;12.362;2022-07-23T05:46:26;14.67;;;10.63;;
11588;SDS011;5850;51.360;12.362;2022-07-23T05:48:55;14.00;;;10.80;;
11588;SDS011;5850;51.360;12.362;2022-07-23T05:51:24;13.77;;;11.27;;
11588;SDS011;5850;51.360;12.362;2022-07-23T05:53:53;17.80;;;10.80;;
11588;SDS011;5850;51.360;12.362;2022-07-23T05:56:21;13.23;;;10.60;;
11588;SDS011;5850;51.360;12.362;2022-07-23T05:58:50;14.77;;;10.20;;
11588;SDS011;5850;51.360;12.362;2022-07-23T06:01:19;11.50;;;10.00;;
11588;SDS011;5850;51.360;12.362;2022-07-23T06:03:47;12.23;;;9.93;;
11588;SDS011;5850;51.360;12.362;2022-07-23T06:06:16;10.57;;;9.47;;
11588;SDS011;5850;51.360;12.362;2022-07-23T06:08:44;13.57;;;8.93;;
11588;SDS011;5850;51.360;12.362;2022-07-23T06:11:13;12.07;;;9.17;;
11588;SDS011;5850;51.360;12.362;2022-07-23T06:13:41;11.67;;;9.37;;
11588;SDS011;5850;51.360;12.362;2022-07-23T06:16:10;10.77;;;8.43;;
11588;SDS011;5850;51.360;12.362;2022-07-23T06:18:39;9.80;;;8.80;;
11588;SDS011;5850;51.360;12.362;2022-07-23T06:21:07;12.07;;;9.13;;
11588;SDS011;5850;51.360;12.362;2022-07-23T06:23:55;10.93;;;8.50;;
11588;SDS011;5850;51.360;12.362;2022-07-23T06:26:24;9.50;;;8.50;;
11588;SDS011;5850;51.360;12.362;2022-07-23T06:28:52;11.40;;;8.47;;
11588;SDS011;5850;51.360;12.362;2022-07-23T06:31:21;8.87;;;7.30;;
11588;SDS011;5850;51.360;12.362;2022-07-23T06:33:50;10.57;;;8.33;;
11588;SDS011;5850;51.360;12.362;2022-07-23T06:36:18;8.40;;;7.00;;
11588;SDS011;5850;51.360;12.362;2022-07-23T06:38:48;12.83;;;8.67;;
11588;SDS011;5850;51.360;12.362;2022-07-23T06:41:17;11.50;;;7.80;;
11588;SDS011;5850;51.360;12.362;2022-07-23T06:43:45;8.03;;;6.90;;
11588;SDS011;5850;51.360;12.362;2022-07-23T06:46:14;9.97;;;7.57;;
11588;SDS011;5850;51.360;12.362;2022-07-23T06:48:43;11.17;;;6.97;;
11588;SDS011;5850;51.360;12.362;2022-07-23T06:51:11;8.87;;;7.03;;
11588;SDS011;5850;51.360;12.362;2022-07-23T06:53:40;9.30;;;6.13;;
11588;SDS011;5850;51.360;12.362;2022-07-23T06:56:08;8.20;;;6.80;;
11588;SDS011;5850;51.360;12.362;2022-07-23T06:58:37;10.20;;;6.90;;
11588;SDS011;5850;51.360;12.362;2022-07-23T07:01:06;10.90;;;9.80;;
11588;SDS011;5850;51.360;12.362;2022-07-23T07:03:34;11.17;;;8.80;;
11588;SDS011;5850;51.360;12.362;2022-07-23T07:06:03;8.30;;;6.97;;
11588;SDS011;5850;51.360;12.362;2022-07-23T07:08:31;9.67;;;7.07;;
11588;SDS011;5850;51.360;12.362;2022-07-23T07:11:00;9.87;;;7.23;;
11588;SDS011;5850;51.360;12.362;2022-07-23T07:13:28;7.83;;;7.00;;
11588;SDS011;5850;51.360;12.362;2022-07-23T07:15:57;15.83;;;10.90;;
11588;SDS011;5850;51.360;12.362;2022-07-23T07:18:26;15.10;;;11.10;;
11588;SDS011;5850;51.360;12.362;2022-07-23T07:20:54;12.90;;;9.23;;
11588;SDS011;5850;51.360;12.362;2022-07-23T07:23:24;11.63;;;7.97;;
11588;SDS011;5850;51.360;12.362;2022-07-23T07:25:52;8.77;;;7.83;;
11588;SDS011;5850;51.360;12.362;2022-07-23T07:28:20;10.23;;;7.43;;
11588;SDS011;5850;51.360;12.362;2022-07-23T07:30:49;10.73;;;8.13;;
11588;SDS011;5850;51.360;12.362;2022-07-23T07:33:18;10.97;;;7.63;;
11588;SDS011;5850;51.360;12.362;2022-07-23T07:35:47;10.23;;;7.60;;
11588;SDS011;5850;51.360;12.362;2022-07-23T07:38:16;10.70;;;7.90;;
11588;SDS011;5850;51.360;12.362;2022-07-23T07:40:45;12.60;;;7.87;;
11588;SDS011;5850;51.360;12.362;2022-07-23T07:43:14;9.20;;;8.20;;
11588;SDS011;5850;51.360;12.362;2022-07-23T07:45:42;10.07;;;8.80;;
11588;SDS011;5850;51.360;12.362;2022-07-23T07:48:11;9.93;;;8.00;;
11588;SDS011;5850;51.360;12.362;2022-07-23T07:50:39;10.10;;;9.10;;
11588;SDS011;5850;51.360;12.362;2022-07-23T07:53:09;13.23;;;9.13;;
11588;SDS011;5850;51.360;12.362;2022-07-23T07:55:38;9.83;;;7.90;;
11588;SDS011;5850;51.360;12.362;2022-07-23T07:58:06;10.87;;;7.87;;
11588;SDS011;5850;51.360;12.362;2022-07-23T08:00:35;9.03;;;8.07;;
11588;SDS011;5850;51.360;12.362;2022-07-23T08:03:03;10.87;;;9.27;;
11588;SDS011;5850;51.360;12.362;2022-07-23T08:05:32;10.83;;;9.73;;
11588;SDS011;5850;51.360;12.362;2022-07-23T08:08:00;11.47;;;10.13;;
11588;SDS011;5850;51.360;12.362;2022-07-23T08:10:29;10.13;;;9.13;;
11588;SDS011;5850;51.360;12.362;2022-07-23T08:12:58;10.50;;;9.47;;
11588;SDS011;5850;51.360;12.362;2022-07-23T08:15:28;12.47;;;10.57;;
11588;SDS011;5850;51.360;12.362;2022-07-23T08:17:58;11.73;;;9.77;;
11588;SDS011;5850;51.360;12.362;2022-07-23T08:20:27;10.03;;;9.03;;
11588;SDS011;5850;51.360;12.362;2022-07-23T08:23:05;10.63;;;9.13;;
11588;SDS011;5850;51.360;12.362;2022-07-23T08:25:36;11.47;;;10.07;;
11588;SDS011;5850;51.360;12.362;2022-07-23T08:28:07;8.93;;;8.03;;
11588;SDS011;5850;51.360;12.362;2022-07-23T08:30:38;10.53;;;9.07;;
11588;SDS011;5850;51.360;12.362;2022-07-23T08:33:15;11.57;;;10.30;;
11588;SDS011;5850;51.360;12.362;2022-07-23T08:35:58;10.87;;;8.60;;
11588;SDS011;5850;51.360;12.362;2022-07-23T08:38:30;9.80;;;8.90;;
11588;SDS011;5850;51.360;12.362;2022-07-23T08:40:59;11.87;;;8.00;;
11588;SDS011;5850;51.360;12.362;2022-07-23T08:43:29;10.93;;;9.70;;
11588;SDS011;5850;51.360;12.362;2022-07-23T08:46:02;9.87;;;8.87;;
11588;SDS011;5850;51.360;12.362;2022-07-23T08:48:32;14.17;;;11.93;;
11588;SDS011;5850;51.360;12.362;2022-07-23T08:51:05;13.83;;;10.90;;
11588;SDS011;5850;51.360;12.362;2022-07-23T08:53:34;10.90;;;9.80;;
11588;SDS011;5850;51.360;12.362;2022-07-23T08:56:04;12.63;;;10.87;;
11588;SDS011;5850;51.360;12.362;2022-07-23T08:58:35;13.27;;;10.73;;
11588;SDS011;5850;51.360;12.362;2022-07-23T09:01:03;12.23;;;10.93;;
11588;SDS011;5850;51.360;12.362;2022-07-23T09:03:33;13.07;;;10.90;;
11588;SDS011;5850;51.360;12.362;2022-07-23T09:06:04;14.90;;;11.70;;
11588;SDS011;5850;51.360;12.362;2022-07-23T09:11:10;10.93;;;9.83;;
11588;SDS011;5850;51.360;12.362;2022-07-23T09:13:48;15.53;;;13.87;;
11588;SDS011;5850;51.360;12.362;2022-07-23T09:16:20;17.13;;;12.93;;
11588;SDS011;5850;51.360;12.362;2022-07-23T09:18:58;13.80;;;11.60;;
11588;SDS011;5850;51.360;12.362;2022-07-23T09:21:30;12.33;;;9.77;;
11588;SDS011;5850;51.360;12.362;2022-07-23T09:29:08;12.43;;;10.80;;
11588;SDS011;5850;51.360;12.362;2022-07-23T09:31:44;12.40;;;10.20;;
11588;SDS011;5850;51.360;12.362;2022-07-23T09:34:25;11.00;;;9.87;;
11588;SDS011;5850;51.360;12.362;2022-07-23T09:36:57;10.97;;;9.43;;
11588;SDS011;5850;51.360;12.362;2022-07-23T09:39:43;10.40;;;9.30;;
11588;SDS011;5850;51.360;12.362;2022-07-23T09:42:15;9.97;;;8.90;;
11588;SDS011;5850;51.360;12.362;2022-07-23T09:44:48;9.00;;;7.73;;
11588;SDS011;5850;51.360;12.362;2022-07-23T09:47:22;9.87;;;8.70;;
11588;SDS011;5850;51.360;12.362;2022-07-23T09:52:31;11.20;;;8.83;;
11588;SDS011;5850;51.360;12.362;2022-07-23T09:55:02;9.60;;;7.90;;
11588;SDS011;5850;51.360;12.362;2022-07-23T09:57:33;9.00;;;7.20;;
11588;SDS011;5850;51.360;12.362;2022-07-23T10:00:03;11.63;;;9.87;;
11588;SDS011;5850;51.360;12.362;2022-07-23T10:02:34;11.20;;;7.73;;
11588;SDS011;5850;51.360;12.362;2022-07-23T10:05:03;10.77;;;8.37;;
11588;SDS011;5850;51.360;12.362;2022-07-23T10:07:34;10.67;;;7.73;;
11588;SDS011;5850;51.360;12.362;2022-07-23T10:10:05;9.40;;;7.97;;
11588;SDS011;5850;51.360;12.362;2022-07-23T10:12:34;8.50;;;7.60;;
11588;SDS011;5850;51.360;12.362;2022-07-23T10:15:16;10.93;;;8.83;;
11588;SDS011;5850;51.360;12.362;2022-07-23T10:17:46;9.70;;;7.90;;
11588;SDS011;5850;51.360;12.362;2022-07-23T10:20:15;8.00;;;7.20;;
11588;SDS011;5850;51.360;12.362;2022-07-23T10:23:00;11.23;;;10.03;;
11588;SDS011;5850;51.360;12.362;2022-07-23T10:34:42;7.10;;;6.40;;
11588;SDS011;5850;51.360;12.362;2022-07-23T10:37:34;6.30;;;5.77;;
11588;SDS011;5850;51.360;12.362;2022-07-23T10:40:11;8.37;;;7.17;;
11588;SDS011;5850;51.360;12.362;2022-07-23T10:42:47;11.03;;;7.50;;
11588;SDS011;5850;51.360;12.362;2022-07-23T10:45:32;11.37;;;7.97;;
11588;SDS011;5850;51.360;12.362;2022-07-23T10:59:23;10.53;;;8.53;;
11588;SDS011;5850;51.360;12.362;2022-07-23T11:01:51;10.47;;;9.30;;
11588;SDS011;5850;51.360;12.362;2022-07-23T11:04:19;10.33;;;8.70;;
11588;SDS011;5850;51.360;12.362;2022-07-23T11:07:18;10.73;;;9.63;;
11588;SDS011;5850;51.360;12.362;2022-07-23T11:09:47;11.17;;;9.40;;
11588;SDS011;5850;51.360;12.362;2022-07-23T11:15:08;9.07;;;8.13;;
11588;SDS011;5850;51.360;12.362;2022-07-23T11:17:58;9.43;;;8.50;;
11588;SDS011;5850;51.360;12.362;2022-07-23T11:20:27;9.47;;;8.33;;
11588;SDS011;5850;51.360;12.362;2022-07-23T11:22:56;9.77;;;8.77;;
11588;SDS011;5850;51.360;12.362;2022-07-23T11:27:55;10.50;;;9.00;;
11588;SDS011;5850;51.360;12.362;2022-07-23T11:30:37;10.03;;;7.87;;
11588;SDS011;5850;51.360;12.362;2022-07-23T11:35:44;10.70;;;8.00;;
11588;SDS011;5850;51.360;12.362;2022-07-23T11:40:51;11.27;;;9.70;;
11588;SDS011;5850;51.360;12.362;2022-07-23T11:43:22;11.37;;;9.67;;
11588;SDS011;5850;51.360;12.362;2022-07-23T11:45:52;9.53;;;8.50;;
11588;SDS011;5850;51.360;12.362;2022-07-23T11:48:28;8.90;;;8.00;;
11588;SDS011;5850;51.360;12.362;2022-07-23T11:51:06;11.47;;;10.07;;
11588;SDS011;5850;51.360;12.362;2022-07-23T11:53:34;11.10;;;9.70;;
11588;SDS011;5850;51.360;12.362;2022-07-23T11:56:03;9.23;;;8.33;;
11588;SDS011;5850;51.360;12.362;2022-07-23T11:58:37;9.90;;;9.00;;
11588;SDS011;5850;51.360;12.362;2022-07-23T12:01:06;11.63;;;10.00;;
11588;SDS011;5850;51.360;12.362;2022-07-23T12:03:48;10.80;;;9.70;;
11588;SDS011;5850;51.360;12.362;2022-07-23T12:06:20;8.93;;;8.03;;
11588;SDS011;5850;51.360;12.362;2022-07-23T12:08:48;12.37;;;9.33;;
11588;SDS011;5850;51.360;12.362;2022-07-23T12:11:16;9.67;;;8.47;;
11588;SDS011;5850;51.360;12.362;2022-07-23T12:13:55;12.23;;;10.67;;
11588;SDS011;5850;51.360;12.362;2022-07-23T12:16:25;9.77;;;8.77;;
11588;SDS011;5850;51.360;12.362;2022-07-23T12:18:53;9.80;;;8.50;;
11588;SDS011;5850;51.360;12.362;2022-07-23T12:21:22;12.30;;;9.87;;
11588;SDS011;5850;51.360;12.362;2022-07-23T12:23:50;10.23;;;9.00;;
11588;SDS011;5850;51.360;12.362;2022-07-23T12:26:19;9.60;;;8.70;;
11588;SDS011;5850;51.360;12.362;2022-07-23T12:28:51;11.47;;;9.53;;
11588;SDS011;5850;51.360;12.362;2022-07-23T12:31:25;11.73;;;10.50;;
11588;SDS011;5850;51.360;12.362;2022-07-23T12:33:54;8.77;;;7.90;;
11588;SDS011;5850;51.360;12.362;2022-07-23T12:36:36;11.50;;;8.90;;
11588;SDS011;5850;51.360;12.362;2022-07-23T12:39:07;10.37;;;7.90;;
11588;SDS011;5850;51.360;12.362;2022-07-23T12:41:52;9.67;;;8.67;;
11588;SDS011;5850;51.360;12.362;2022-07-23T12:44:21;11.90;;;9.63;;
11588;SDS011;5850;51.360;12.362;2022-07-23T12:46:50;9.00;;;8.10;;
11588;SDS011;5850;51.360;12.362;2022-07-23T12:49:26;13.13;;;11.00;;
11588;SDS011;5850;51.360;12.362;2022-07-23T12:51:55;10.03;;;9.13;;
11588;SDS011;5850;51.360;12.362;2022-07-23T12:54:27;9.80;;;8.87;;
11588;SDS011;5850;51.360;12.362;2022-07-23T12:56:56;8.40;;;7.70;;
11588;SDS011;5850;51.360;12.362;2022-07-23T12:59:24;8.47;;;7.60;;
11588;SDS011;5850;51.360;12.362;2022-07-23T13:01:59;9.00;;;8.17;;
11588;SDS011;5850;51.360;12.362;2022-07-23T13:04:28;11.27;;;9.67;;
11588;SDS011;5850;51.360;12.362;2022-07-23T13:06:59;8.90;;;7.80;;
11588;SDS011;5850;51.360;12.362;2022-07-23T13:09:31;10.93;;;8.80;;
11588;SDS011;5850;51.360;12.362;2022-07-23T13:12:07;8.30;;;7.60;;
11588;SDS011;5850;51.360;12.362;2022-07-23T13:14:37;8.57;;;7.73;;
11588;SDS011;5850;51.360;12.362;2022-07-23T13:17:07;8.77;;;7.97;;
11588;SDS011;5850;51.360;12.362;2022-07-23T13:19:35;11.20;;;10.00;;
11588;SDS011;5850;51.360;12.362;2022-07-23T13:22:04;9.00;;;8.10;;
11588;SDS011;5850;51.360;12.362;2022-07-23T13:24:35;9.30;;;8.27;;
11588;SDS011;5850;51.360;12.362;2022-07-23T13:27:04;9.83;;;8.63;;
11588;SDS011;5850;51.360;12.362;2022-07-23T13:29:38;9.67;;;8.77;;
11588;SDS011;5850;51.360;12.362;2022-07-23T13:32:07;9.37;;;8.50;;
11588;SDS011;5850;51.360;12.362;2022-07-23T13:34:39;8.90;;;8.07;;
11588;SDS011;5850;51.360;12.362;2022-07-23T13:37:07;9.57;;;8.67;;
11588;SDS011;5850;51.360;12.362;2022-07-23T13:39:36;9.30;;;8.07;;
11588;SDS011;5850;51.360;12.362;2022-07-23T13:42:05;7.53;;;6.70;;
11588;SDS011;5850;51.360;12.362;2022-07-23T13:44:33;10.07;;;7.57;;
11588;SDS011;5850;51.360;12.362;2022-07-23T13:47:02;10.80;;;8.53;;
11588;SDS011;5850;51.360;12.362;2022-07-23T13:49:31;9.00;;;8.10;;
11588;SDS011;5850;51.360;12.362;2022-07-23T13:52:01;11.47;;;10.10;;
11588;SDS011;5850;51.360;12.362;2022-07-23T13:54:33;10.73;;;9.63;;
11588;SDS011;5850;51.360;12.362;2022-07-23T13:57:02;8.97;;;8.17;;
11588;SDS011;5850;51.360;12.362;2022-07-23T13:59:31;10.23;;;9.33;;
11588;SDS011;5850;51.360;12.362;2022-07-23T14:01:59;9.53;;;8.57;;
11588;SDS011;5850;51.360;12.362;2022-07-23T14:04:50;8.60;;;7.87;;
11588;SDS011;5850;51.360;12.362;2022-07-23T14:07:19;10.27;;;9.20;;
11588;SDS011;5850;51.360;12.362;2022-07-23T14:09:48;10.13;;;8.87;;
11588;SDS011;5850;51.360;12.362;2022-07-23T14:12:17;9.03;;;8.13;;
11588;SDS011;5850;51.360;12.362;2022-07-23T14:14:48;12.33;;;10.27;;
11588;SDS011;5850;51.360;12.362;2022-07-23T14:17:18;10.13;;;8.87;;
11588;SDS011;5850;51.360;12.362;2022-07-23T14:19:47;9.30;;;7.90;;
11588;SDS011;5850;51.360;12.362;2022-07-23T14:22:16;9.23;;;8.23;;
11588;SDS011;5850;51.360;12.362;2022-07-23T14:24:46;10.30;;;7.90;;
11588;SDS011;5850;51.360;12.362;2022-07-23T14:27:15;9.23;;;8.30;;
11588;SDS011;5850;51.360;12.362;2022-07-23T14:29:46;6.83;;;6.20;;
11588;SDS011;5850;51.360;12.362;2022-07-23T14:32:14;8.33;;;7.53;;
11588;SDS011;5850;51.360;12.362;2022-07-23T14:34:43;9.40;;;8.07;;
11588;SDS011;5850;51.360;12.362;2022-07-23T14:37:15;8.93;;;8.13;;
11588;SDS011;5850;51.360;12.362;2022-07-23T14:39:44;7.33;;;6.63;;
11588;SDS011;5850;51.360;12.362;2022-07-23T14:42:15;8.73;;;7.87;;
11588;SDS011;5850;51.360;12.362;2022-07-23T14:44:43;8.20;;;7.40;;
11588;SDS011;5850;51.360;12.362;2022-07-23T14:47:12;8.33;;;7.63;;
11588;SDS011;5850;51.360;12.362;2022-07-23T14:49:46;8.93;;;7.50;;
11588;SDS011;5850;51.360;12.362;2022-07-23T14:52:15;9.97;;;9.00;;
11588;SDS011;5850;51.360;12.362;2022-07-23T14:54:45;8.10;;;7.30;;
11588;SDS011;5850;51.360;12.362;2022-07-23T14:57:15;8.17;;;7.37;;
11588;SDS011;5850;51.360;12.362;2022-07-23T14:59:51;8.63;;;7.83;;
11588;SDS011;5850;51.360;12.362;2022-07-23T15:02:21;8.47;;;7.77;;
11588;SDS011;5850;51.360;12.362;2022-07-23T15:04:49;9.40;;;8.50;;
11588;SDS011;5850;51.360;12.362;2022-07-23T15:07:18;10.27;;;9.37;;
11588;SDS011;5850;51.360;12.362;2022-07-23T15:09:50;9.27;;;8.37;;
11588;SDS011;5850;51.360;12.362;2022-07-23T15:12:19;10.13;;;8.53;;
11588;SDS011;5850;51.360;12.362;2022-07-23T15:14:48;9.07;;;8.07;;
11588;SDS011;5850;51.360;12.362;2022-07-23T15:17:17;9.17;;;8.37;;
11588;SDS011;5850;51.360;12.362;2022-07-23T15:19:46;9.53;;;8.53;;
11588;SDS011;5850;51.360;12.362;2022-07-23T15:22:15;11.13;;;8.87;;
11588;SDS011;5850;51.360;12.362;2022-07-23T15:24:44;10.17;;;9.23;;
11588;SDS011;5850;51.360;12.362;2022-07-23T15:27:12;8.37;;;7.57;;
11588;SDS011;5850;51.360;12.362;2022-07-23T15:29:42;9.00;;;8.20;;
11588;SDS011;5850;51.360;12.362;2022-07-23T15:32:11;8.27;;;7.53;;
11588;SDS011;5850;51.360;12.362;2022-07-23T15:34:41;9.10;;;8.20;;
11588;SDS011;5850;51.360;12.362;2022-07-23T15:37:09;8.83;;;8.03;;
11588;SDS011;5850;51.360;12.362;2022-07-23T15:39:39;10.10;;;9.20;;